createdAt,value
2022-12-31T00:01:21.181Z,14.85
2022-12-31T00:03:48.923Z,14.07
2022-12-31T00:06:17.879Z,16.67
2022-12-31T00:08:47.768Z,16.25
2022-12-31T00:11:15.635Z,16.02
2022-12-31T00:13:47.781Z,16.13
2022-12-31T00:16:18.688Z,17.58
2022-12-31T00:18:46.792Z,15.10
2022-12-31T00:21:18.803Z,13.75
2022-12-31T00:24:04.272Z,13.98
2022-12-31T00:26:36.882Z,13.60
2022-12-31T00:29:06.985Z,14.05
2022-12-31T00:31:39.114Z,15.75
2022-12-31T00:34:09.307Z,15.18
2022-12-31T00:36:40.002Z,13.93
2022-12-31T00:39:10.105Z,14.98
2022-12-31T00:41:39.384Z,16.42
2022-12-31T00:44:07.069Z,18.27
2022-12-31T00:49:10.067Z,16.85
2022-12-31T00:51:38.128Z,17.15
2022-12-31T00:54:08.054Z,17.60
2022-12-31T00:56:37.459Z,18.05
2022-12-31T00:59:05.423Z,18.85
2022-12-31T01:01:34.265Z,16.15
2022-12-31T01:04:04.218Z,16.52
2022-12-31T01:06:32.107Z,16.80
2022-12-31T01:08:59.744Z,16.20
2022-12-31T01:11:29.435Z,16.25
2022-12-31T01:14:01.739Z,17.42
2022-12-31T01:16:30.534Z,15.90
2022-12-31T01:18:59.543Z,15.85
2022-12-31T01:21:27.337Z,17.83
2022-12-31T01:23:57.054Z,16.90
2022-12-31T01:26:25.015Z,16.27
2022-12-31T01:28:53.082Z,16.05
2022-12-31T01:31:22.958Z,17.88
2022-12-31T01:33:53.099Z,18.73
2022-12-31T01:36:25.896Z,16.63
2022-12-31T01:38:54.707Z,16.45
2022-12-31T01:41:23.631Z,19.20
2022-12-31T01:43:54.362Z,16.83
2022-12-31T01:46:29.367Z,17.00
2022-12-31T01:48:58.800Z,18.05
2022-12-31T01:51:27.646Z,20.05
2022-12-31T01:53:55.751Z,17.40
2022-12-31T01:56:26.316Z,17.88
2022-12-31T01:58:54.948Z,20.38
2022-12-31T02:01:24.419Z,18.83
2022-12-31T02:03:55.519Z,19.20
2022-12-31T02:06:24.403Z,19.08
2022-12-31T02:08:51.949Z,19.35
2022-12-31T02:11:24.733Z,19.20
2022-12-31T02:13:58.591Z,17.27
2022-12-31T02:18:59.013Z,17.00
2022-12-31T02:21:33.815Z,18.45
2022-12-31T02:24:32.643Z,18.05
2022-12-31T02:27:03.025Z,17.15
2022-12-31T02:29:45.528Z,19.52
2022-12-31T02:32:17.483Z,18.55
2022-12-31T02:34:47.588Z,17.85
2022-12-31T02:37:16.461Z,19.23
2022-12-31T02:39:44.406Z,19.17
2022-12-31T02:42:12.752Z,18.08
2022-12-31T02:44:42.181Z,20.20
2022-12-31T02:47:16.232Z,17.77
2022-12-31T02:49:50.635Z,18.20
2022-12-31T02:52:22.765Z,19.52
2022-12-31T02:54:54.386Z,17.98
2022-12-31T02:57:25.645Z,18.02
2022-12-31T03:00:13.806Z,20.75
2022-12-31T03:02:43.114Z,18.98
2022-12-31T03:05:13.183Z,20.17
2022-12-31T03:07:43.737Z,19.85
2022-12-31T03:10:11.700Z,18.55
2022-12-31T03:12:47.633Z,19.05
2022-12-31T03:15:21.532Z,18.23
2022-12-31T03:17:53.420Z,20.52
2022-12-31T03:20:42.225Z,19.77
2022-12-31T03:23:14.189Z,19.42
2022-12-31T03:25:41.297Z,17.88
2022-12-31T03:28:10.655Z,19.00
2022-12-31T03:30:39.224Z,19.02
2022-12-31T03:33:07.495Z,19.13
2022-12-31T03:35:38.731Z,20.25
2022-12-31T03:38:07.299Z,17.73
2022-12-31T03:40:39.290Z,19.02
2022-12-31T03:43:07.081Z,20.35
2022-12-31T03:45:35.504Z,21.02
2022-12-31T03:48:03.035Z,17.15
2022-12-31T03:50:30.916Z,19.67
2022-12-31T03:53:00.006Z,20.23
2022-12-31T03:55:27.621Z,19.85
2022-12-31T03:57:55.451Z,19.23
2022-12-31T04:00:23.380Z,23.58
2022-12-31T04:02:51.800Z,22.70
2022-12-31T04:05:20.122Z,21.45
2022-12-31T04:07:52.078Z,20.77
2022-12-31T04:10:21.206Z,20.75
2022-12-31T04:12:49.303Z,21.77
2022-12-31T04:15:19.609Z,21.40
2022-12-31T04:17:47.309Z,23.48
2022-12-31T04:20:15.412Z,23.25
2022-12-31T04:22:44.205Z,22.95
2022-12-31T04:25:12.323Z,24.23
2022-12-31T04:27:43.607Z,24.10
2022-12-31T04:30:12.525Z,21.52
2022-12-31T04:32:40.088Z,21.85
2022-12-31T04:35:08.673Z,19.90
2022-12-31T04:37:36.315Z,21.77
2022-12-31T04:40:06.563Z,20.38
2022-12-31T04:42:34.685Z,19.85
2022-12-31T04:45:04.024Z,23.42
2022-12-31T04:47:31.739Z,21.27
2022-12-31T04:50:00.866Z,23.38
2022-12-31T04:52:28.458Z,23.27
2022-12-31T04:54:56.549Z,20.35
2022-12-31T04:57:24.185Z,21.15
2022-12-31T04:59:51.862Z,23.88
2022-12-31T05:02:23.932Z,22.63
2022-12-31T05:04:51.748Z,21.13
2022-12-31T05:07:20.076Z,22.27
2022-12-31T05:09:47.773Z,23.40
2022-12-31T05:12:15.540Z,22.30
2022-12-31T05:14:48.324Z,22.50
2022-12-31T05:17:15.870Z,21.42
2022-12-31T05:19:44.891Z,23.20
2022-12-31T05:22:30.878Z,23.90
2022-12-31T05:24:58.792Z,21.45
2022-12-31T05:27:27.183Z,22.98
2022-12-31T05:29:54.708Z,21.75
2022-12-31T05:32:22.630Z,23.08
2022-12-31T05:34:51.715Z,23.65
2022-12-31T05:37:19.636Z,22.55
2022-12-31T05:39:47.573Z,23.05
2022-12-31T05:42:15.137Z,23.98
2022-12-31T05:44:42.754Z,25.17
2022-12-31T05:47:10.473Z,25.80
2022-12-31T05:49:38.119Z,27.58
2022-12-31T05:52:07.284Z,28.13
2022-12-31T05:54:36.722Z,28.30
2022-12-31T05:57:05.749Z,29.02
2022-12-31T05:59:35.879Z,28.40
2022-12-31T06:02:03.442Z,26.77
2022-12-31T06:04:31.235Z,26.00
2022-12-31T06:06:58.883Z,27.30
2022-12-31T06:09:27.773Z,26.15
2022-12-31T06:11:55.325Z,29.48
2022-12-31T06:14:23.061Z,29.70
2022-12-31T06:16:50.641Z,28.38
2022-12-31T06:19:18.242Z,30.38
2022-12-31T06:21:45.770Z,29.65
2022-12-31T06:24:13.511Z,29.75
2022-12-31T06:26:42.426Z,29.55
2022-12-31T06:29:10.455Z,29.52
2022-12-31T06:31:38.416Z,30.60
2022-12-31T06:34:06.129Z,28.45
2022-12-31T06:36:35.908Z,30.45
2022-12-31T06:39:03.569Z,28.95
2022-12-31T06:41:32.338Z,30.17
2022-12-31T06:44:01.742Z,29.58
2022-12-31T06:46:29.362Z,30.13
2022-12-31T06:48:58.312Z,30.23
2022-12-31T06:51:25.943Z,29.08
2022-12-31T06:53:57.892Z,27.05
2022-12-31T06:56:33.941Z,27.50
2022-12-31T06:59:05.035Z,26.15
2022-12-31T07:01:44.579Z,26.40
2022-12-31T07:04:28.036Z,25.58
2022-12-31T07:07:00.333Z,26.30
2022-12-31T07:09:32.651Z,25.52
2022-12-31T07:12:03.547Z,28.05
2022-12-31T07:14:35.432Z,25.10
2022-12-31T07:17:12.462Z,29.35
2022-12-31T07:19:46.114Z,27.50
2022-12-31T07:22:15.620Z,27.42
2022-12-31T07:24:43.612Z,26.27
2022-12-31T07:27:20.966Z,28.40
2022-12-31T07:29:57.481Z,26.45
2022-12-31T07:32:31.609Z,25.08
2022-12-31T07:37:33.934Z,26.00
2022-12-31T07:40:04.781Z,30.35
2022-12-31T07:42:36.341Z,27.67
2022-12-31T07:45:10.273Z,30.85
2022-12-31T07:47:38.143Z,29.98
2022-12-31T07:50:06.371Z,31.17
2022-12-31T07:52:34.352Z,36.45
2022-12-31T07:55:01.959Z,36.50
2022-12-31T07:57:32.197Z,37.97
2022-12-31T08:00:04.681Z,36.95
2022-12-31T08:02:41.718Z,29.60
2022-12-31T08:05:13.201Z,29.13
2022-12-31T08:07:45.689Z,25.58
2022-12-31T08:10:18.271Z,25.52
2022-12-31T08:12:47.009Z,24.25
2022-12-31T08:15:15.355Z,20.10
2022-12-31T08:17:44.736Z,19.15
2022-12-31T08:20:14.033Z,19.60
2022-12-31T08:22:51.678Z,19.42
2022-12-31T08:25:22.035Z,18.90
2022-12-31T08:27:57.703Z,20.27
2022-12-31T08:30:27.753Z,18.92
2022-12-31T08:33:04.485Z,21.23
2022-12-31T08:35:39.909Z,18.95
2022-12-31T08:38:10.981Z,20.23
2022-12-31T08:40:44.911Z,17.40
2022-12-31T08:43:19.385Z,20.90
2022-12-31T08:45:48.528Z,19.83
2022-12-31T08:48:22.699Z,18.30
2022-12-31T08:50:54.730Z,19.63
2022-12-31T08:53:22.589Z,19.02
2022-12-31T08:55:50.938Z,18.05
2022-12-31T08:58:28.534Z,18.25
2022-12-31T09:00:58.303Z,20.02
2022-12-31T09:03:44.037Z,18.38
2022-12-31T09:06:18.777Z,20.45
2022-12-31T09:08:48.586Z,18.83
2022-12-31T09:11:23.272Z,20.70
2022-12-31T09:14:00.154Z,21.20
2022-12-31T09:16:31.464Z,20.48
2022-12-31T09:18:59.188Z,18.80
2022-12-31T09:21:28.753Z,21.52
2022-12-31T09:23:57.963Z,20.17
2022-12-31T09:26:33.864Z,21.50
2022-12-31T09:29:08.346Z,20.45
2022-12-31T09:31:39.407Z,21.02
2022-12-31T09:34:10.280Z,20.20
2022-12-31T09:36:41.044Z,20.02
2022-12-31T09:39:12.661Z,18.33
2022-12-31T09:42:00.717Z,18.48
2022-12-31T09:44:49.240Z,19.63
2022-12-31T09:47:37.912Z,18.83
2022-12-31T09:50:20.133Z,21.33
2022-12-31T09:52:58.822Z,19.80
2022-12-31T09:55:33.031Z,20.77
2022-12-31T10:00:32.820Z,20.85
2022-12-31T10:03:09.482Z,19.92
2022-12-31T10:05:44.267Z,21.10
2022-12-31T10:08:18.943Z,19.75
2022-12-31T10:10:50.996Z,20.90
2022-12-31T10:13:25.839Z,18.92
2022-12-31T10:16:27.118Z,20.80
2022-12-31T10:19:09.809Z,20.52
2022-12-31T10:21:45.340Z,19.48
2022-12-31T10:24:24.647Z,21.83
2022-12-31T10:27:01.340Z,23.52
2022-12-31T10:29:35.241Z,23.40
2022-12-31T10:32:13.893Z,23.83
2022-12-31T10:34:48.612Z,22.95
2022-12-31T10:37:17.994Z,22.55
2022-12-31T10:39:54.216Z,23.15
2022-12-31T10:42:42.546Z,23.27
2022-12-31T10:45:28.076Z,23.50
2022-12-31T10:48:10.608Z,23.30
2022-12-31T10:50:59.232Z,21.77
2022-12-31T10:53:35.044Z,21.40
2022-12-31T10:56:21.946Z,22.00
2022-12-31T10:59:09.987Z,22.15
2022-12-31T11:01:52.160Z,22.38
2022-12-31T11:04:39.425Z,21.52
2022-12-31T11:07:27.478Z,19.08
2022-12-31T11:10:19.635Z,19.52
2022-12-31T11:13:13.504Z,19.42
2022-12-31T11:15:52.473Z,20.05
2022-12-31T11:18:26.723Z,22.15
2022-12-31T11:23:36.521Z,20.45
2022-12-31T11:26:19.673Z,21.60
2022-12-31T11:29:06.311Z,18.30
2022-12-31T11:31:42.013Z,17.23
2022-12-31T11:34:15.909Z,19.45
2022-12-31T11:36:53.599Z,18.67
2022-12-31T11:39:36.069Z,17.77
2022-12-31T11:42:17.860Z,19.08
2022-12-31T11:44:55.020Z,17.40
2022-12-31T11:48:03.887Z,18.25
2022-12-31T11:53:12.947Z,17.17
2022-12-31T11:55:51.211Z,18.88
2022-12-31T11:58:21.078Z,16.88
2022-12-31T12:03:55.710Z,13.10
2022-12-31T12:06:26.342Z,11.88
2022-12-31T12:08:54.769Z,10.63
2022-12-31T12:11:29.739Z,10.68
2022-12-31T12:13:58.528Z,10.07
2022-12-31T12:16:27.247Z,10.82
2022-12-31T12:19:05.279Z,10.73
2022-12-31T12:21:33.411Z,9.95
2022-12-31T12:24:02.801Z,11.05
2022-12-31T12:29:21.759Z,11.95
2022-12-31T12:34:32.476Z,12.48
2022-12-31T12:37:02.374Z,12.50
2022-12-31T12:39:32.373Z,14.73
2022-12-31T12:42:05.918Z,13.27
2022-12-31T12:44:38.870Z,13.45
2022-12-31T12:47:09.670Z,14.45
2022-12-31T12:49:39.696Z,13.23
2022-12-31T12:52:22.151Z,13.88
2022-12-31T12:54:58.390Z,12.98
2022-12-31T12:57:30.319Z,13.35
2022-12-31T13:03:31.172Z,13.15
2022-12-31T13:06:06.289Z,12.75
2022-12-31T13:08:43.711Z,13.38
2022-12-31T13:11:18.266Z,13.60
2022-12-31T13:13:52.177Z,13.98
2022-12-31T13:16:26.046Z,13.52
2022-12-31T13:19:02.668Z,12.77
2022-12-31T13:21:43.184Z,13.95
2022-12-31T13:24:16.595Z,13.93
2022-12-31T13:26:46.990Z,13.20
2022-12-31T13:29:18.982Z,13.95
2022-12-31T13:31:47.030Z,14.90
2022-12-31T13:34:17.107Z,16.67
2022-12-31T13:36:46.289Z,14.85
2022-12-31T13:39:17.642Z,14.65
2022-12-31T13:41:48.380Z,14.95
2022-12-31T13:44:20.223Z,14.63
2022-12-31T13:46:49.401Z,16.38
2022-12-31T13:49:20.035Z,14.93
2022-12-31T13:51:50.396Z,18.23
2022-12-31T13:54:30.809Z,17.30
2022-12-31T13:57:00.757Z,17.33
2022-12-31T13:59:41.574Z,17.70
2022-12-31T14:02:20.118Z,17.83
2022-12-31T14:04:50.120Z,18.98
2022-12-31T14:07:20.329Z,18.30
2022-12-31T14:09:47.907Z,18.80
2022-12-31T14:12:23.160Z,18.70
2022-12-31T14:14:56.681Z,18.80
2022-12-31T14:17:32.402Z,18.02
2022-12-31T14:20:03.619Z,17.33
2022-12-31T14:22:35.487Z,18.17
2022-12-31T14:25:04.697Z,17.20
2022-12-31T14:27:37.148Z,18.90
2022-12-31T14:30:08.094Z,18.42
2022-12-31T14:32:45.745Z,17.75
2022-12-31T14:35:19.764Z,18.13
2022-12-31T14:37:50.525Z,16.83
2022-12-31T14:40:20.621Z,20.50
2022-12-31T14:42:53.983Z,16.85
2022-12-31T14:45:31.457Z,16.83
2022-12-31T14:48:02.092Z,16.58
2022-12-31T14:50:30.558Z,16.33
2022-12-31T14:53:09.017Z,15.40
2022-12-31T14:55:37.107Z,16.38
2022-12-31T14:58:28.715Z,17.60
2022-12-31T15:00:59.031Z,17.58
2022-12-31T15:03:33.639Z,17.20
2022-12-31T15:06:04.684Z,17.55
2022-12-31T15:08:43.797Z,17.77
2022-12-31T15:11:29.144Z,16.15
2022-12-31T15:14:08.199Z,17.00
2022-12-31T15:16:42.445Z,17.85
2022-12-31T15:21:45.579Z,17.17
2022-12-31T15:24:20.053Z,16.58
2022-12-31T15:26:49.489Z,17.65
2022-12-31T15:29:25.031Z,17.60
2022-12-31T15:31:54.322Z,15.88
2022-12-31T15:34:25.561Z,17.58
2022-12-31T15:36:53.680Z,18.95
2022-12-31T15:39:27.330Z,16.58
2022-12-31T15:42:36.168Z,17.60
2022-12-31T15:44:47.456Z,16.58
2022-12-31T15:47:18.651Z,17.00
2022-12-31T15:49:47.766Z,18.23
2022-12-31T15:52:18.241Z,17.67
2022-12-31T15:54:46.909Z,17.63
2022-12-31T15:57:17.260Z,16.52
2022-12-31T15:59:45.071Z,17.05
2022-12-31T16:02:19.984Z,17.17
2022-12-31T16:04:49.359Z,16.20
2022-12-31T16:07:18.542Z,16.50
2022-12-31T16:09:49.694Z,15.10
2022-12-31T16:12:20.409Z,15.73
2022-12-31T16:14:51.684Z,15.95
2022-12-31T16:17:30.710Z,15.98
2022-12-31T16:19:59.389Z,15.93
2022-12-31T16:22:28.041Z,15.52
2022-12-31T16:25:29.001Z,16.95
2022-12-31T16:27:44.193Z,16.20
2022-12-31T16:30:20.084Z,14.63
2022-12-31T16:32:50.519Z,14.32
2022-12-31T16:35:25.344Z,15.68
2022-12-31T16:38:02.689Z,14.88
2022-12-31T16:40:30.819Z,14.40
2022-12-31T16:42:58.347Z,14.73
2022-12-31T16:45:30.860Z,14.98
2022-12-31T16:48:02.206Z,13.13
2022-12-31T16:50:30.417Z,14.63
2022-12-31T16:53:00.868Z,15.70
2022-12-31T16:55:31.493Z,14.55
2022-12-31T16:58:00.621Z,15.85
2022-12-31T17:00:28.414Z,18.20
2022-12-31T17:03:04.727Z,16.17
2022-12-31T17:05:35.430Z,14.90
2022-12-31T17:08:15.667Z,15.30
2022-12-31T17:10:43.436Z,15.73
2022-12-31T17:13:29.954Z,15.98
2022-12-31T17:15:58.825Z,15.45
2022-12-31T17:18:29.801Z,14.80
2022-12-31T17:21:05.715Z,14.85
2022-12-31T17:23:34.183Z,14.10
2022-12-31T17:26:04.305Z,15.60
2022-12-31T17:28:36.757Z,15.13
2022-12-31T17:31:24.400Z,14.25
2022-12-31T17:33:54.490Z,15.82
2022-12-31T17:36:23.689Z,13.95
2022-12-31T17:38:52.604Z,15.52
2022-12-31T17:41:24.712Z,14.38
2022-12-31T17:43:56.506Z,15.82
2022-12-31T17:46:25.399Z,14.90
2022-12-31T17:48:58.355Z,14.15
2022-12-31T17:51:25.901Z,15.50
2022-12-31T17:53:53.396Z,14.85
2022-12-31T17:56:21.525Z,14.27
2022-12-31T17:58:51.056Z,13.77
2022-12-31T18:01:20.162Z,14.07
2022-12-31T18:03:59.130Z,14.18
2022-12-31T18:06:28.289Z,14.10
2022-12-31T18:09:02.864Z,14.32
2022-12-31T18:11:30.540Z,12.43
2022-12-31T18:13:58.151Z,14.40
2022-12-31T18:16:25.757Z,12.77
2022-12-31T18:18:53.546Z,12.50
2022-12-31T18:21:23.598Z,12.85
2022-12-31T18:26:23.954Z,12.70
2022-12-31T18:28:53.963Z,12.25
2022-12-31T18:31:22.870Z,12.63
2022-12-31T18:33:51.144Z,12.60
2022-12-31T18:36:19.555Z,12.07
2022-12-31T18:38:47.054Z,11.90
2022-12-31T18:41:19.104Z,11.95
2022-12-31T18:43:46.995Z,13.23
2022-12-31T18:46:14.848Z,12.77
2022-12-31T18:48:42.385Z,13.73
2022-12-31T18:51:12.858Z,12.32
2022-12-31T18:53:40.402Z,11.75
2022-12-31T18:56:15.708Z,12.15
2022-12-31T18:58:45.308Z,12.27
2022-12-31T19:01:23.641Z,12.43
2022-12-31T19:03:51.256Z,12.65
2022-12-31T19:06:18.813Z,10.43
2022-12-31T19:08:46.771Z,10.57
2022-12-31T19:11:15.677Z,11.30
2022-12-31T19:13:44.502Z,12.48
2022-12-31T19:16:13.976Z,11.70
2022-12-31T19:18:42.495Z,11.13
2022-12-31T19:21:15.656Z,12.18
2022-12-31T19:23:43.902Z,10.02
2022-12-31T19:26:22.235Z,10.95
2022-12-31T19:28:51.719Z,9.90
2022-12-31T19:31:19.465Z,10.57
2022-12-31T19:33:47.716Z,9.85
2022-12-31T19:36:19.381Z,11.45
2022-12-31T19:38:47.181Z,9.70
2022-12-31T19:41:16.062Z,10.20
2022-12-31T19:43:43.959Z,9.25
2022-12-31T19:46:15.184Z,9.82
2022-12-31T19:48:43.545Z,10.40
2022-12-31T19:51:13.761Z,11.55
2022-12-31T19:53:45.012Z,10.82
2022-12-31T19:56:13.729Z,9.40
2022-12-31T19:58:41.309Z,10.18
2022-12-31T20:01:09.876Z,10.50
2022-12-31T20:03:38.970Z,10.43
2022-12-31T20:06:10.851Z,10.48
2022-12-31T20:08:39.660Z,11.32
2022-12-31T20:11:10.944Z,9.63
2022-12-31T20:13:39.018Z,10.15
2022-12-31T20:16:07.746Z,10.40
2022-12-31T20:18:36.893Z,9.90
2022-12-31T20:21:31.390Z,10.68
2022-12-31T20:24:00.303Z,9.93
2022-12-31T20:26:31.289Z,9.73
2022-12-31T20:29:01.146Z,10.38
2022-12-31T20:31:29.219Z,10.15
2022-12-31T20:33:59.965Z,9.82
2022-12-31T20:36:28.153Z,9.82
2022-12-31T20:39:02.832Z,9.57
2022-12-31T20:41:32.734Z,9.32
2022-12-31T20:44:00.375Z,10.25
2022-12-31T20:46:28.904Z,11.23
2022-12-31T20:48:57.094Z,11.18
2022-12-31T20:51:25.207Z,9.95
2022-12-31T20:53:55.143Z,10.48
2022-12-31T20:56:25.073Z,10.23
2022-12-31T20:58:53.974Z,9.80
2022-12-31T21:01:21.836Z,9.93
2022-12-31T21:04:06.900Z,9.88
2022-12-31T21:06:35.438Z,10.45
2022-12-31T21:09:03.961Z,10.20
2022-12-31T21:11:49.145Z,9.50
2022-12-31T21:14:20.098Z,10.50
2022-12-31T21:16:53.374Z,10.48
2022-12-31T21:19:23.355Z,12.57
2022-12-31T21:21:50.885Z,9.60
2022-12-31T21:24:23.498Z,9.57
2022-12-31T21:26:52.846Z,11.57
2022-12-31T21:29:21.772Z,12.75
2022-12-31T21:31:53.483Z,12.05
2022-12-31T21:34:21.243Z,9.85
2022-12-31T21:36:49.028Z,10.60
2022-12-31T21:39:16.685Z,10.20
2022-12-31T21:41:53.899Z,10.23
2022-12-31T21:44:25.466Z,10.57
2022-12-31T21:47:33.438Z,10.52
2022-12-31T21:49:44.774Z,11.35
2022-12-31T21:52:27.614Z,11.38
2022-12-31T21:55:13.073Z,11.45
2022-12-31T21:58:07.170Z,10.65
2022-12-31T22:00:47.119Z,10.50
2022-12-31T22:03:27.648Z,11.07
2022-12-31T22:05:56.957Z,10.68
2022-12-31T22:08:27.577Z,11.95
2022-12-31T22:10:56.116Z,11.38
2022-12-31T22:13:24.882Z,11.60
2022-12-31T22:16:00.279Z,10.95
2022-12-31T22:18:32.295Z,12.10
2022-12-31T22:21:03.573Z,11.35
2022-12-31T22:23:31.771Z,11.75
2022-12-31T22:25:59.666Z,11.35
2022-12-31T22:28:38.025Z,11.20
2022-12-31T22:31:08.509Z,12.38
2022-12-31T22:33:36.323Z,10.70
2022-12-31T22:36:05.068Z,11.55
2022-12-31T22:38:33.419Z,11.18
2022-12-31T22:41:05.908Z,11.45
2022-12-31T22:43:34.972Z,10.82
2022-12-31T22:46:09.838Z,12.15
2022-12-31T22:48:40.585Z,12.38
2022-12-31T22:51:10.828Z,11.75
2022-12-31T22:53:38.596Z,11.95
2022-12-31T22:56:06.798Z,13.60
2022-12-31T22:58:35.715Z,14.30
2022-12-31T23:01:05.043Z,12.48
2022-12-31T23:03:34.008Z,11.55
2022-12-31T23:06:01.700Z,11.85
2022-12-31T23:08:29.476Z,13.32
2022-12-31T23:11:00.949Z,11.93
2022-12-31T23:13:50.661Z,11.88
2022-12-31T23:16:36.523Z,12.88
2022-12-31T23:19:23.369Z,11.88
2022-12-31T23:22:14.114Z,12.45
2022-12-31T23:24:42.141Z,12.00
2022-12-31T23:27:10.608Z,12.85
2022-12-31T23:29:45.705Z,13.57
2022-12-31T23:32:14.697Z,13.23
2022-12-31T23:34:45.804Z,14.05
2022-12-31T23:37:14.084Z,12.30
2022-12-31T23:39:41.974Z,13.35
2022-12-31T23:42:10.071Z,14.73
2022-12-31T23:44:38.916Z,12.90
2022-12-31T23:47:06.950Z,13.88
2022-12-31T23:49:34.588Z,13.30
2022-12-31T23:52:03.608Z,13.40
2022-12-31T23:54:31.127Z,12.75
2022-12-31T23:56:59.001Z,13.90
2022-12-31T23:59:26.726Z,13.77
